createdAt,value
2016-07-16T00:00:25.675Z,14.1
2016-07-16T00:01:24.244Z,14.03
2016-07-16T00:02:24.960Z,14.03
2016-07-16T00:03:39.828Z,14.02
2016-07-16T00:04:25.224Z,13.96
2016-07-16T00:05:26.535Z,13.96
2016-07-16T00:06:25.193Z,13.97
2016-07-16T00:07:25.058Z,14.02
2016-07-16T00:08:25.221Z,13.99
2016-07-16T00:09:25.210Z,13.95
2016-07-16T00:10:24.370Z,13.89
2016-07-16T00:11:24.277Z,13.89
2016-07-16T00:12:25.204Z,13.91
2016-07-16T00:13:24.322Z,13.91
2016-07-16T00:14:24.318Z,14.02
2016-07-16T00:15:24.368Z,13.91
2016-07-16T00:16:25.002Z,13.82
2016-07-16T00:17:25.013Z,13.84
2016-07-16T00:18:25.037Z,13.91
2016-07-16T00:19:25.743Z,13.84
2016-07-16T00:20:25.746Z,13.81
2016-07-16T00:21:25.769Z,13.84
2016-07-16T00:22:24.348Z,13.78
2016-07-16T00:23:24.328Z,13.84
2016-07-16T00:24:24.331Z,13.77
2016-07-16T00:25:25.070Z,13.75
2016-07-16T00:26:25.286Z,13.73
2016-07-16T00:27:25.074Z,13.71
2016-07-16T00:28:24.364Z,13.75
2016-07-16T00:29:24.378Z,13.78
2016-07-16T00:30:24.560Z,13.73
2016-07-16T00:31:39.451Z,13.69
2016-07-16T00:32:25.131Z,13.63
2016-07-16T00:33:24.370Z,13.55
2016-07-16T00:34:25.117Z,13.63
2016-07-16T00:35:25.082Z,13.63
2016-07-16T00:36:25.307Z,13.57
2016-07-16T00:37:25.823Z,13.57
2016-07-16T00:38:24.390Z,13.67
2016-07-16T00:39:25.122Z,13.57
2016-07-16T00:40:26.122Z,13.66
2016-07-16T00:41:24.400Z,13.62
2016-07-16T00:42:24.463Z,13.73
2016-07-16T00:43:24.422Z,13.64
2016-07-16T00:44:24.499Z,13.66
2016-07-16T00:45:25.881Z,13.64
2016-07-16T00:46:24.420Z,13.66
2016-07-16T00:47:24.445Z,13.67
2016-07-16T00:48:24.421Z,13.67
2016-07-16T00:49:24.427Z,13.63
2016-07-16T00:50:25.372Z,13.57
2016-07-16T00:51:25.186Z,13.67
2016-07-16T00:52:25.150Z,13.7
2016-07-16T00:53:24.461Z,13.79
2016-07-16T00:54:25.208Z,13.75
2016-07-16T00:55:25.169Z,13.7
2016-07-16T00:56:25.176Z,13.71
2016-07-16T00:57:25.201Z,13.69
2016-07-16T00:58:25.418Z,13.71
2016-07-16T00:59:24.672Z,13.78
2016-07-16T01:00:25.433Z,13.7
2016-07-16T01:01:25.209Z,13.79
2016-07-16T01:02:25.203Z,13.73
2016-07-16T01:03:24.502Z,13.77
2016-07-16T01:04:24.502Z,13.7
2016-07-16T01:05:25.237Z,13.66
2016-07-16T01:06:24.513Z,13.79
2016-07-16T01:07:24.522Z,13.84
2016-07-16T01:08:25.261Z,13.79
2016-07-16T01:09:25.498Z,13.7
2016-07-16T01:10:25.265Z,13.79
2016-07-16T01:11:24.526Z,13.79
2016-07-16T01:12:24.534Z,13.69
2016-07-16T01:13:25.250Z,13.7
2016-07-16T01:14:25.361Z,13.71
2016-07-16T01:15:24.590Z,13.75
2016-07-16T01:16:24.752Z,13.7
2016-07-16T01:17:25.330Z,13.63
2016-07-16T01:18:24.565Z,13.62
2016-07-16T01:19:24.575Z,13.6
2016-07-16T01:20:24.575Z,13.6
2016-07-16T01:21:26.022Z,13.59
2016-07-16T01:22:24.563Z,13.57
2016-07-16T01:23:25.299Z,13.64
2016-07-16T01:24:25.318Z,13.55
2016-07-16T01:25:25.331Z,13.57
2016-07-16T01:26:24.582Z,13.63
2016-07-16T01:27:25.361Z,13.62
2016-07-16T01:28:24.587Z,13.62
2016-07-16T01:29:24.608Z,13.6
2016-07-16T01:30:25.366Z,13.63
2016-07-16T01:31:25.308Z,13.59
2016-07-16T01:32:24.612Z,13.59
2016-07-16T01:33:25.324Z,13.55
2016-07-16T01:34:25.346Z,13.6
2016-07-16T01:35:24.820Z,13.57
2016-07-16T01:36:39.491Z,13.55
2016-07-16T01:37:40.199Z,13.55
2016-07-16T01:38:24.630Z,13.54
2016-07-16T01:39:24.645Z,13.51
2016-07-16T01:40:40.226Z,13.48
2016-07-16T01:41:25.366Z,13.55
2016-07-16T01:42:25.352Z,13.45
2016-07-16T01:43:25.360Z,13.46
2016-07-16T01:44:24.748Z,13.45
2016-07-16T01:45:25.398Z,13.45
2016-07-16T01:46:24.684Z,13.49
2016-07-16T01:47:24.667Z,13.45
2016-07-16T01:48:25.594Z,13.45
2016-07-16T01:49:25.638Z,13.45
2016-07-16T01:50:24.695Z,13.44
2016-07-16T01:51:25.421Z,13.51
2016-07-16T01:52:25.118Z,13.46
2016-07-16T01:53:25.446Z,13.54
2016-07-16T01:54:24.695Z,13.45
2016-07-16T01:55:25.488Z,13.41
2016-07-16T01:56:24.709Z,13.44
2016-07-16T01:57:25.432Z,13.44
2016-07-16T01:58:40.294Z,13.44
2016-07-16T01:59:25.461Z,13.39
2016-07-16T02:01:24.734Z,13.44
2016-07-16T02:02:24.740Z,13.36
2016-07-16T02:03:24.728Z,13.41
2016-07-16T02:05:26.201Z,13.38
2016-07-16T02:06:25.483Z,13.32
2016-07-16T02:07:24.749Z,13.28
2016-07-16T02:08:25.462Z,13.32
2016-07-16T02:09:25.462Z,13.29
2016-07-16T02:10:25.466Z,13.29
2016-07-16T02:11:24.779Z,13.23
2016-07-16T02:12:39.619Z,13.25
2016-07-16T02:13:25.477Z,13.22
2016-07-16T02:14:26.628Z,13.23
2016-07-16T02:15:24.780Z,13.1
2016-07-16T02:16:26.207Z,13.15
2016-07-16T02:17:25.000Z,13.07
2016-07-16T02:18:25.526Z,13.07
2016-07-16T02:19:24.813Z,13.05
2016-07-16T02:20:24.988Z,13.05
2016-07-16T02:21:25.006Z,12.97
2016-07-16T02:22:24.829Z,13.01
2016-07-16T02:23:24.805Z,13.03
2016-07-16T02:24:24.804Z,13.03
2016-07-16T02:25:24.812Z,13.01
2016-07-16T02:26:24.817Z,13.01
2016-07-16T02:27:26.457Z,12.96
2016-07-16T02:28:25.939Z,12.95
2016-07-16T02:29:25.580Z,12.92
2016-07-16T02:30:25.820Z,12.92
2016-07-16T02:31:40.410Z,12.92
2016-07-16T02:32:25.782Z,12.97
2016-07-16T02:33:25.783Z,12.96
2016-07-16T02:34:25.757Z,12.93
2016-07-16T02:35:25.587Z,13
2016-07-16T02:36:25.583Z,12.87
2016-07-16T02:37:25.590Z,12.92
2016-07-16T02:38:26.342Z,12.9
2016-07-16T02:39:24.861Z,12.9
2016-07-16T02:40:24.871Z,12.87
2016-07-16T02:41:24.881Z,12.9
2016-07-16T02:42:25.803Z,12.89
2016-07-16T02:43:25.097Z,12.85
2016-07-16T02:44:24.934Z,12.89
2016-07-16T02:45:24.883Z,12.89
2016-07-16T02:46:25.606Z,12.86
2016-07-16T02:47:24.889Z,12.87
2016-07-16T02:48:39.760Z,12.85
2016-07-16T02:49:24.893Z,12.83
2016-07-16T02:50:25.192Z,12.83
2016-07-16T02:51:25.621Z,12.82
2016-07-16T02:52:24.899Z,12.85
2016-07-16T02:53:24.902Z,12.79
2016-07-16T02:54:25.346Z,12.83
2016-07-16T02:55:25.619Z,12.83
2016-07-16T02:57:24.931Z,12.68
2016-07-16T02:58:25.630Z,12.79
2016-07-16T02:59:25.638Z,12.72
2016-07-16T03:00:24.927Z,12.67
2016-07-16T03:01:26.574Z,12.74
2016-07-16T03:02:24.944Z,12.72
2016-07-16T03:03:25.671Z,12.71
2016-07-16T03:04:40.531Z,12.56
2016-07-16T03:05:25.727Z,12.54
2016-07-16T03:06:25.694Z,12.6
2016-07-16T03:08:25.197Z,12.54
2016-07-16T03:09:25.665Z,12.53
2016-07-16T03:10:25.182Z,12.42
2016-07-16T03:11:25.678Z,12.49
2016-07-16T03:12:25.893Z,12.42
2016-07-16T03:13:24.963Z,12.45
2016-07-16T03:14:24.991Z,12.42
2016-07-16T03:15:24.982Z,12.37
2016-07-16T03:16:24.983Z,12.39
2016-07-16T03:17:26.644Z,12.39
2016-07-16T03:18:25.207Z,12.32
2016-07-16T03:19:25.215Z,12.32
2016-07-16T03:20:24.985Z,12.32
2016-07-16T03:21:25.024Z,12.38
2016-07-16T03:22:25.729Z,12.31
2016-07-16T03:23:25.747Z,12.29
2016-07-16T03:24:39.863Z,12.28
2016-07-16T03:25:25.943Z,12.28
2016-07-16T03:26:39.863Z,12.35
2016-07-16T03:27:25.028Z,12.29
2016-07-16T03:28:25.027Z,12.29
2016-07-16T03:29:26.503Z,12.31
2016-07-16T03:30:25.763Z,12.35
2016-07-16T03:31:25.964Z,12.31
2016-07-16T03:32:25.775Z,12.39
2016-07-16T03:33:25.051Z,12.41
2016-07-16T03:34:25.038Z,12.45
2016-07-16T03:35:25.086Z,12.45
2016-07-16T03:36:25.475Z,12.47
2016-07-16T03:37:25.054Z,12.53
2016-07-16T03:38:25.058Z,12.52
2016-07-16T03:39:25.801Z,12.52
2016-07-16T03:40:25.062Z,12.47
2016-07-16T03:41:25.061Z,12.52
2016-07-16T03:42:25.051Z,12.5
2016-07-16T03:43:25.073Z,12.56
2016-07-16T03:44:26.569Z,12.56
2016-07-16T03:45:26.530Z,12.54
2016-07-16T03:46:26.528Z,12.6
2016-07-16T03:47:25.811Z,12.54
2016-07-16T03:48:25.093Z,12.62
2016-07-16T03:49:25.113Z,12.57
2016-07-16T03:50:25.083Z,12.68
2016-07-16T03:51:25.085Z,12.74
2016-07-16T03:52:39.978Z,12.71
2016-07-16T03:53:26.219Z,12.83
2016-07-16T03:54:25.097Z,12.83
2016-07-16T03:55:25.100Z,12.83
2016-07-16T03:56:25.830Z,12.85
2016-07-16T03:57:25.835Z,12.83
2016-07-16T03:58:25.837Z,12.95
2016-07-16T03:59:25.836Z,12.9
2016-07-16T04:00:25.852Z,12.96
2016-07-16T04:01:26.080Z,13.01
2016-07-16T04:02:25.326Z,13.1
2016-07-16T04:03:26.127Z,13.12
2016-07-16T04:04:40.002Z,13.12
2016-07-16T04:05:25.899Z,13.19
2016-07-16T04:06:25.856Z,13.26
2016-07-16T04:07:25.864Z,13.22
2016-07-16T04:08:26.008Z,13.2
2016-07-16T04:09:25.236Z,13.3
2016-07-16T04:10:25.318Z,13.32
2016-07-16T04:11:25.188Z,13.29
2016-07-16T04:12:25.890Z,13.32
2016-07-16T04:13:26.129Z,13.29
2016-07-16T04:14:25.899Z,13.26
2016-07-16T04:15:25.186Z,13.26
2016-07-16T04:16:26.116Z,13.33
2016-07-16T04:17:26.167Z,13.41
2016-07-16T04:18:26.650Z,13.38
2016-07-16T04:19:25.422Z,13.39
2016-07-16T04:20:26.914Z,13.38
2016-07-16T04:21:25.953Z,13.48
2016-07-16T04:22:25.226Z,13.36
2016-07-16T04:23:25.420Z,13.38
2016-07-16T04:24:40.102Z,13.48
2016-07-16T04:25:25.230Z,13.49
2016-07-16T04:26:25.946Z,13.51
2016-07-16T04:27:25.230Z,13.46
2016-07-16T04:28:26.149Z,13.46
2016-07-16T04:29:26.043Z,13.46
2016-07-16T04:30:26.689Z,13.46
2016-07-16T04:31:25.301Z,13.45
2016-07-16T04:32:25.989Z,13.49
2016-07-16T04:33:26.071Z,13.42
2016-07-16T04:34:25.477Z,13.54
2016-07-16T04:35:26.072Z,13.48
2016-07-16T04:36:26.728Z,13.57
2016-07-16T04:37:26.005Z,13.54
2016-07-16T04:38:25.282Z,13.55
2016-07-16T04:39:26.740Z,13.57
2016-07-16T04:40:26.235Z,13.63
2016-07-16T04:41:25.497Z,13.6
2016-07-16T04:42:25.332Z,13.62
2016-07-16T04:43:25.319Z,13.62
2016-07-16T04:44:25.373Z,13.59
2016-07-16T04:45:25.351Z,13.55
2016-07-16T04:46:25.537Z,13.55
2016-07-16T04:47:25.329Z,13.57
2016-07-16T04:48:25.564Z,13.63
2016-07-16T04:49:25.380Z,13.78
2016-07-16T04:50:26.041Z,13.67
2016-07-16T04:51:25.345Z,13.77
2016-07-16T04:52:26.192Z,13.69
2016-07-16T04:53:25.386Z,13.79
2016-07-16T04:54:26.079Z,13.77
2016-07-16T04:56:26.841Z,13.77
2016-07-16T04:57:25.669Z,13.84
2016-07-16T04:58:25.591Z,13.96
2016-07-16T04:59:25.392Z,13.87
2016-07-16T05:00:25.383Z,13.81
2016-07-16T05:01:26.151Z,13.88
2016-07-16T05:02:27.056Z,13.92
2016-07-16T05:04:26.400Z,14
2016-07-16T05:05:40.583Z,13.96
2016-07-16T05:06:25.415Z,14.07
2016-07-16T05:07:26.888Z,13.97
2016-07-16T05:08:25.464Z,14.14
2016-07-16T05:09:25.434Z,14.12
2016-07-16T05:10:25.692Z,14.07
2016-07-16T05:11:25.913Z,14.2
2016-07-16T05:12:25.690Z,14.15
2016-07-16T05:13:26.157Z,14.28
2016-07-16T05:14:26.164Z,14.22
2016-07-16T05:15:26.395Z,14.24
2016-07-16T05:16:26.408Z,14.27
2016-07-16T05:17:26.179Z,14.27
2016-07-16T05:18:40.740Z,14.33
2016-07-16T05:19:26.688Z,14.39
2016-07-16T05:20:40.373Z,14.33
2016-07-16T05:21:26.412Z,14.37
2016-07-16T05:22:26.227Z,14.37
2016-07-16T05:23:25.504Z,14.47
2016-07-16T05:24:26.239Z,14.55
2016-07-16T05:25:25.517Z,14.55
2016-07-16T05:26:25.525Z,14.55
2016-07-16T05:27:25.532Z,14.61
2016-07-16T05:28:26.462Z,14.62
2016-07-16T05:29:25.539Z,14.62
2016-07-16T05:30:26.986Z,14.58
2016-07-16T05:31:26.508Z,14.65
2016-07-16T05:32:26.463Z,14.62
2016-07-16T05:33:26.285Z,14.7
2016-07-16T05:34:27.020Z,14.75
2016-07-16T05:35:27.010Z,14.75
2016-07-16T05:36:25.761Z,14.84
2016-07-16T05:37:40.426Z,14.86
2016-07-16T05:38:26.312Z,14.94
2016-07-16T05:39:27.046Z,14.94
2016-07-16T05:40:25.807Z,14.78
2016-07-16T05:41:40.494Z,14.8
2016-07-16T05:42:25.612Z,14.89
2016-07-16T05:43:27.254Z,14.94
2016-07-16T05:44:25.631Z,14.89
2016-07-16T05:45:25.637Z,14.89
2016-07-16T05:46:26.343Z,14.96
2016-07-16T05:47:27.481Z,14.94
2016-07-16T05:48:55.350Z,14.95
2016-07-16T05:49:41.665Z,14.99
2016-07-16T05:50:25.675Z,14.94
2016-07-16T05:51:26.403Z,14.92
2016-07-16T05:52:25.896Z,15.02
2016-07-16T05:53:25.666Z,15.01
2016-07-16T05:54:26.374Z,15.11
2016-07-16T05:55:25.759Z,15.07
2016-07-16T05:56:25.702Z,15.13
2016-07-16T05:57:25.706Z,15.2
2016-07-16T05:58:26.398Z,15.25
2016-07-16T05:59:26.605Z,15.19
2016-07-16T06:00:26.857Z,15.13
2016-07-16T06:01:25.727Z,15.31
2016-07-16T06:02:26.705Z,15.34
2016-07-16T06:03:26.424Z,15.23
2016-07-16T06:04:25.830Z,15.34
2016-07-16T06:05:26.446Z,15.31
2016-07-16T06:06:25.980Z,15.38
2016-07-16T06:07:25.735Z,15.44
2016-07-16T06:08:25.737Z,15.53
2016-07-16T06:09:25.740Z,15.62
2016-07-16T06:10:25.806Z,15.71
2016-07-16T06:11:25.755Z,15.78
2016-07-16T06:12:26.680Z,15.94
2016-07-16T06:13:25.941Z,15.9
2016-07-16T06:14:25.775Z,16.02
2016-07-16T06:15:27.458Z,16.05
2016-07-16T06:16:26.726Z,16.15
2016-07-16T06:17:25.837Z,16.27
2016-07-16T06:18:25.815Z,16.3
2016-07-16T06:19:40.675Z,16.42
2016-07-16T06:21:27.928Z,16.53
2016-07-16T06:22:25.864Z,16.6
2016-07-16T06:23:26.566Z,16.63
2016-07-16T06:24:25.846Z,16.7
2016-07-16T06:25:25.878Z,16.75
2016-07-16T06:26:27.539Z,16.75
2016-07-16T06:27:43.248Z,16.76
2016-07-16T06:28:26.598Z,16.81
2016-07-16T06:29:25.883Z,16.93
2016-07-16T06:30:40.764Z,16.91
2016-07-16T06:31:26.374Z,16.98
2016-07-16T06:32:25.926Z,17
2016-07-16T06:33:26.629Z,16.94
2016-07-16T06:34:40.809Z,16.93
2016-07-16T06:35:26.668Z,16.91
2016-07-16T06:36:26.650Z,16.94
2016-07-16T06:37:26.660Z,16.97
2016-07-16T06:38:26.664Z,17
2016-07-16T06:39:25.988Z,16.96
2016-07-16T06:40:26.913Z,17.04
2016-07-16T06:41:26.208Z,16.97
2016-07-16T06:42:26.007Z,17.01
2016-07-16T06:43:26.049Z,17.12
2016-07-16T06:44:26.051Z,17.08
2016-07-16T06:45:26.787Z,17.08
2016-07-16T06:47:26.037Z,17.11
2016-07-16T06:48:41.299Z,17.06
2016-07-16T06:49:26.055Z,17.18
2016-07-16T06:50:26.057Z,17.15
2016-07-16T06:51:27.521Z,17.15
2016-07-16T06:52:40.944Z,17.15
2016-07-16T06:53:26.815Z,17.16
2016-07-16T06:54:27.874Z,17.15
2016-07-16T06:55:26.838Z,17.14
2016-07-16T06:56:26.109Z,17.06
2016-07-16T06:57:26.858Z,17.08
2016-07-16T06:58:26.904Z,17.11
2016-07-16T06:59:26.158Z,17.16
2016-07-16T07:00:26.149Z,17.12
2016-07-16T07:01:28.351Z,17.22
2016-07-16T07:02:41.015Z,17.28
2016-07-16T07:03:26.165Z,17.19
2016-07-16T07:04:26.179Z,17.33
2016-07-16T07:05:26.176Z,17.36
2016-07-16T07:06:26.226Z,17.41
2016-07-16T07:07:26.916Z,17.41
2016-07-16T07:08:26.923Z,17.51
2016-07-16T07:09:26.965Z,17.58
2016-07-16T07:10:41.290Z,17.54
2016-07-16T07:11:26.982Z,17.7
2016-07-16T07:12:27.390Z,17.78
2016-07-16T07:13:26.265Z,17.81
2016-07-16T07:14:27.200Z,17.93
2016-07-16T07:15:27.001Z,17.99
2016-07-16T07:16:27.010Z,18.1
2016-07-16T07:17:26.275Z,18.2
2016-07-16T07:18:26.508Z,18.3
2016-07-16T07:19:41.200Z,18.35
2016-07-16T07:20:26.563Z,18.35
2016-07-16T07:21:26.330Z,18.48
2016-07-16T07:22:27.813Z,18.57
2016-07-16T07:23:26.433Z,18.66
2016-07-16T07:24:26.411Z,18.8
2016-07-16T07:25:26.359Z,18.8
2016-07-16T07:26:27.548Z,18.87
2016-07-16T07:27:27.106Z,18.9
2016-07-16T07:28:26.385Z,19.02
2016-07-16T07:29:26.385Z,18.94
2016-07-16T07:30:26.400Z,19.07
2016-07-16T07:31:26.414Z,19.07
2016-07-16T07:32:27.132Z,19.1
2016-07-16T07:33:27.898Z,19.07
2016-07-16T07:34:27.167Z,19.13
2016-07-16T07:35:26.458Z,19.1
2016-07-16T07:36:26.475Z,18.94
2016-07-16T07:37:27.254Z,19.04
2016-07-16T07:38:27.439Z,19.14
2016-07-16T07:39:27.344Z,19.14
2016-07-16T07:40:27.241Z,19.11
2016-07-16T07:41:26.714Z,19.19
2016-07-16T07:42:27.490Z,19.19
2016-07-16T07:43:26.532Z,19.25
2016-07-16T07:44:26.537Z,19.37
2016-07-16T07:45:26.555Z,19.37
2016-07-16T07:46:41.419Z,19.47
2016-07-16T07:47:27.279Z,19.41
2016-07-16T07:48:28.261Z,19.41
2016-07-16T07:50:27.348Z,19.44
2016-07-16T07:51:26.643Z,19.47
2016-07-16T07:52:26.622Z,19.51
2016-07-16T07:53:27.378Z,19.59
2016-07-16T07:54:28.097Z,19.51
2016-07-16T07:55:27.587Z,19.54
2016-07-16T07:56:27.386Z,19.58
2016-07-16T07:57:42.265Z,19.59
2016-07-16T07:58:26.686Z,19.63
2016-07-16T07:59:26.896Z,19.69
2016-07-16T08:00:28.350Z,19.66
2016-07-16T08:01:27.916Z,19.65
2016-07-16T08:02:26.738Z,19.68
2016-07-16T08:03:27.679Z,19.59
2016-07-16T08:05:26.773Z,19.63
2016-07-16T08:06:26.802Z,19.62
2016-07-16T08:07:27.839Z,19.62
2016-07-16T08:08:27.202Z,19.66
2016-07-16T08:09:28.247Z,19.63
2016-07-16T08:10:27.595Z,19.69
2016-07-16T08:11:27.561Z,19.66
2016-07-16T08:12:27.095Z,19.69
2016-07-16T08:13:26.985Z,19.66
2016-07-16T08:14:27.562Z,19.61
2016-07-16T08:15:26.863Z,19.58
2016-07-16T08:16:26.867Z,19.5
2016-07-16T08:17:27.614Z,19.54
2016-07-16T08:18:27.268Z,19.46
2016-07-16T08:19:26.914Z,19.41
2016-07-16T08:20:27.193Z,19.48
2016-07-16T08:21:26.932Z,19.4
2016-07-16T08:22:27.893Z,19.4
2016-07-16T08:23:27.152Z,19.43
2016-07-16T08:24:26.959Z,19.41
2016-07-16T08:25:27.893Z,19.32
2016-07-16T08:26:26.988Z,19.32
2016-07-16T08:27:26.980Z,19.39
2016-07-16T08:28:26.985Z,19.39
2016-07-16T08:29:28.665Z,19.4
2016-07-16T08:30:27.252Z,19.41
2016-07-16T08:31:27.017Z,19.41
2016-07-16T08:32:27.057Z,19.48
2016-07-16T08:33:27.049Z,19.47
2016-07-16T08:34:27.683Z,19.48
2016-07-16T08:35:27.112Z,19.4
2016-07-16T08:36:27.784Z,19.51
2016-07-16T08:37:27.097Z,19.59
2016-07-16T08:38:27.835Z,19.54
2016-07-16T08:39:27.831Z,19.56
2016-07-16T08:40:27.311Z,19.65
2016-07-16T08:41:28.776Z,19.61
2016-07-16T08:42:28.044Z,19.69
2016-07-16T08:43:27.862Z,19.69
2016-07-16T08:44:27.402Z,19.69
2016-07-16T08:45:27.171Z,19.77
2016-07-16T08:46:27.169Z,19.76
2016-07-16T08:47:27.894Z,19.76
2016-07-16T08:48:28.114Z,19.86
2016-07-16T08:49:27.907Z,19.91
2016-07-16T08:50:27.250Z,20.03
2016-07-16T08:51:27.220Z,20.05
2016-07-16T08:52:28.915Z,20.06
2016-07-16T08:53:27.733Z,20.16
2016-07-16T08:54:27.983Z,20.17
2016-07-16T08:55:27.265Z,20.17
2016-07-16T08:56:28.735Z,20.2
2016-07-16T08:57:28.948Z,20.21
2016-07-16T08:58:28.025Z,20.2
2016-07-16T08:59:27.300Z,20.35
2016-07-16T09:00:27.322Z,20.38
2016-07-16T09:01:28.984Z,20.35
2016-07-16T09:02:27.425Z,20.35
2016-07-16T09:03:28.101Z,20.5
2016-07-16T09:04:27.358Z,20.51
2016-07-16T09:05:27.364Z,20.52
2016-07-16T09:06:27.380Z,20.5
2016-07-16T09:07:28.135Z,20.58
2016-07-16T09:08:28.161Z,20.54
2016-07-16T09:09:28.147Z,20.5
2016-07-16T09:10:28.043Z,20.54
2016-07-16T09:11:27.431Z,20.57
2016-07-16T09:12:27.444Z,20.61
2016-07-16T09:13:27.659Z,20.64
2016-07-16T09:14:28.179Z,20.69
2016-07-16T09:15:27.474Z,20.84
2016-07-16T09:16:28.442Z,20.89
2016-07-16T09:17:28.416Z,20.94
2016-07-16T09:18:27.717Z,21.06
2016-07-16T09:20:27.540Z,21.16
2016-07-16T09:21:42.409Z,21.17
2016-07-16T09:22:27.756Z,21.25
2016-07-16T09:23:28.297Z,21.25
2016-07-16T09:24:28.311Z,21.21
2016-07-16T09:25:28.306Z,21.13
2016-07-16T09:26:28.506Z,21.07
2016-07-16T09:27:28.348Z,21.04
2016-07-16T09:28:28.368Z,20.98
2016-07-16T09:29:27.635Z,21.03
2016-07-16T09:30:27.846Z,21.06
2016-07-16T09:31:27.649Z,21.01
2016-07-16T09:32:27.667Z,21.03
2016-07-16T09:33:29.863Z,21.01
2016-07-16T09:34:27.688Z,21.07
2016-07-16T09:35:27.696Z,21.06
2016-07-16T09:36:28.726Z,21.03
2016-07-16T09:37:28.448Z,21.03
2016-07-16T09:38:28.642Z,21.03
2016-07-16T09:39:28.170Z,21.01
2016-07-16T09:40:28.170Z,21.01
2016-07-16T09:41:29.016Z,21.12
2016-07-16T09:42:28.648Z,21.06
2016-07-16T09:43:27.831Z,20.98
2016-07-16T09:44:28.245Z,21.06
2016-07-16T09:45:27.813Z,21.04
2016-07-16T09:46:27.971Z,21.17
2016-07-16T09:47:42.905Z,21.16
2016-07-16T09:48:42.716Z,21.21
2016-07-16T09:49:28.587Z,21.27
2016-07-16T09:50:28.818Z,21.32
2016-07-16T09:51:28.611Z,21.29
2016-07-16T09:52:28.629Z,21.28
2016-07-16T09:53:28.859Z,21.29
2016-07-16T09:54:28.644Z,21.37
2016-07-16T09:55:28.651Z,21.35
2016-07-16T09:56:28.579Z,21.25
2016-07-16T09:57:28.875Z,21.17
2016-07-16T09:58:28.641Z,21.19
2016-07-16T09:59:43.999Z,21.1
2016-07-16T10:00:29.231Z,20.99
2016-07-16T10:01:28.217Z,20.97
2016-07-16T10:02:29.221Z,20.95
2016-07-16T10:03:43.893Z,20.97
2016-07-16T10:04:29.788Z,20.92
2016-07-16T10:05:28.031Z,20.88
2016-07-16T10:06:29.490Z,20.95
2016-07-16T10:07:28.815Z,20.99
2016-07-16T10:08:42.937Z,21.01
2016-07-16T10:09:28.124Z,21.01
2016-07-16T10:10:29.987Z,21.21
2016-07-16T10:11:28.314Z,21.19
2016-07-16T10:12:28.930Z,21.27
2016-07-16T10:13:28.878Z,21.29
2016-07-16T10:14:28.871Z,21.4
2016-07-16T10:15:28.159Z,21.49
2016-07-16T10:16:28.877Z,21.54
2016-07-16T10:17:29.671Z,21.67
2016-07-16T10:18:28.598Z,21.65
2016-07-16T10:19:28.199Z,21.72
2016-07-16T10:20:28.215Z,21.82
2016-07-16T10:21:28.461Z,21.84
2016-07-16T10:22:28.231Z,21.86
2016-07-16T10:23:28.246Z,21.9
2016-07-16T10:24:28.996Z,21.82
2016-07-16T10:25:28.278Z,21.94
